Haubstadt, Indiana
Current Conditions -  °F | °C
As of 10:54 AM on Tuesday 21 Oct 2014 (Local Time) from KEVV Reporting Station
Clear Clear  
Wind Chill: 61°   Ceiling: Unl
Heat Index: 61°   Visibility: 10mi
Dew Point: 45°   Wind: 9mph
Humidity: 56%   Direction: 40°NE
Pressure: 30.1"   Gusts: NA
Location:  38.21°N, 87.57°W
Report Text: KEVV 211554Z 04008KT 10SM CLR 16/07 A3010 RMK AO2 SLP192 T01610072
Loading
Personal Weather Stations






























Interactive Weather Map
Tropical Storm Tracking
New forecast layout! Learn more

10-Day Weather Forecast

Advertisements
Track Severe Weather on mobile